Time;durP1;ratioP1;P1;durP2;ratioP2;P2;SDS_P1;SDS_P2;PMS_P1;PMS_P2;Temp;Humidity;BMP_temperature;BMP_pressure;BME280_temperature;BME280_humidity;BME280_pressure;Samples;Min_cycle;Max_cycle;Signal;HPM_P1;HPM_P2
2021/09/17 00:01:59;;;;;;;12.40;8.95;;;;;;;11.60;86.91;98624.13;4171289;28;20377;-73
2021/09/17 00:03:59;;;;;;;12.02;9.07;;;;;;;11.54;87.33;98614.56;4171365;28;20044;-73
2021/09/17 00:06:00;;;;;;;12.52;8.90;;;;;;;11.54;87.63;98620.09;4170516;28;20040;-73
2021/09/17 00:08:00;;;;;;;14.95;9.23;;;;;;;11.50;87.33;98614.53;4171648;28;20426;-73
2021/09/17 00:10:00;;;;;;;14.95;9.70;;;;;;;11.48;87.50;98621.63;4169949;28;20308;-73
2021/09/17 00:12:01;;;;;;;12.35;8.70;;;;;;;11.46;87.63;98615.66;4148688;28;20168;-73
2021/09/17 00:14:02;;;;;;;15.32;9.55;;;;;;;11.47;87.51;98614.47;4151649;28;20469;-73
2021/09/17 00:16:02;;;;;;;12.60;9.48;;;;;;;11.46;87.64;98616.47;4154560;28;20045;-73
2021/09/17 00:18:03;;;;;;;14.02;10.30;;;;;;;11.42;87.85;98620.34;4171593;28;20024;-73
2021/09/17 00:20:04;;;;;;;12.38;9.27;;;;;;;11.38;88.08;98614.78;4170087;28;20087;-73
2021/09/17 00:22:05;;;;;;;12.88;8.95;;;;;;;11.42;88.27;98614.81;4170788;28;20033;-73
2021/09/17 00:24:05;;;;;;;15.25;8.23;;;;;;;11.47;87.61;98608.94;4169949;28;20040;-73
2021/09/17 00:26:06;;;;;;;14.35;9.43;;;;;;;11.49;87.42;98606.59;4170614;28;20033;-72
2021/09/17 00:28:07;;;;;;;12.15;7.95;;;;;;;11.56;87.08;98614.97;4170912;28;20040;-73
2021/09/17 00:30:08;;;;;;;12.77;8.73;;;;;;;11.61;87.11;98608.28;4171060;28;20025;-73
2021/09/17 00:32:08;;;;;;;13.23;8.63;;;;;;;11.65;86.96;98611.88;4171532;28;20095;-73
2021/09/17 00:34:09;;;;;;;14.02;9.57;;;;;;;11.65;86.68;98612.69;4170466;28;20037;-73
2021/09/17 00:36:09;;;;;;;12.55;9.02;;;;;;;11.65;87.12;98623.75;4170338;28;20514;-73
2021/09/17 00:38:10;;;;;;;12.23;9.40;;;;;;;11.63;86.99;98620.59;4170664;28;20025;-73
2021/09/17 00:40:11;;;;;;;14.07;9.80;;;;;;;11.60;87.51;98618.59;4170413;28;20427;-73
2021/09/17 00:42:11;;;;;;;11.63;8.70;;;;;;;11.60;87.45;98618.59;4170925;28;20099;-73
2021/09/17 00:44:11;;;;;;;11.82;8.35;;;;;;;11.59;87.26;98611.44;4169133;28;20037;-73
2021/09/17 00:46:12;;;;;;;11.20;7.82;;;;;;;11.63;86.99;98608.69;4152483;28;20030;-73
2021/09/17 00:48:12;;;;;;;13.57;9.40;;;;;;;11.64;87.06;98611.09;4170832;28;20037;-73
2021/09/17 00:50:14;;;;;;;11.90;8.18;;;;;;;11.65;86.84;98615.44;4169550;28;20033;-73
2021/09/17 00:52:15;;;;;;;13.40;8.88;;;;;;;11.62;87.36;98609.88;4171393;28;20037;-73
2021/09/17 00:54:15;;;;;;;15.95;9.65;;;;;;;11.58;88.23;98609.84;4152171;28;20289;-73
2021/09/17 00:56:15;;;;;;;13.85;9.82;;;;;;;11.50;88.51;98605.41;4170786;28;20031;-73
2021/09/17 00:58:16;;;;;;;16.83;9.38;;;;;;;11.51;89.08;98613.34;4168559;28;20037;-73
2021/09/17 01:00:17;;;;;;;12.18;8.40;;;;;;;11.51;88.89;98599.50;4170079;28;20041;-73
2021/09/17 01:02:17;;;;;;;13.48;8.50;;;;;;;11.57;88.50;98607.44;4170315;28;20369;-73
2021/09/17 01:04:17;;;;;;;11.70;8.75;;;;;;;11.60;88.03;98606.72;4169590;28;20045;-73
2021/09/17 01:06:18;;;;;;;12.95;9.00;;;;;;;11.62;88.19;98599.59;4171208;28;20033;-73
2021/09/17 01:08:18;;;;;;;12.10;8.30;;;;;;;11.69;87.98;98610.75;4169683;28;20483;-73
2021/09/17 01:10:18;;;;;;;13.38;8.30;;;;;;;11.74;87.67;98604.03;4170800;28;20037;-73
2021/09/17 01:12:19;;;;;;;12.85;7.90;;;;;;;11.77;87.52;98595.78;4169129;28;20040;-73
2021/09/17 01:14:19;;;;;;;10.07;7.53;;;;;;;11.76;87.07;98594.19;4152093;28;20037;-73
2021/09/17 01:16:19;;;;;;;13.90;8.20;;;;;;;11.85;86.94;98598.63;4170233;28;20410;-73
2021/09/17 01:18:20;;;;;;;11.23;7.65;;;;;;;11.87;86.65;98590.72;4170572;28;20052;-73
2021/09/17 01:20:20;;;;;;;11.07;7.63;;;;;;;11.86;86.82;98592.72;4169703;28;20049;-73
2021/09/17 01:22:21;;;;;;;10.70;6.82;;;;;;;11.88;86.81;98595.88;4170259;28;20056;-73
2021/09/17 01:24:21;;;;;;;10.65;7.25;;;;;;;11.88;86.63;98598.66;4169698;28;20041;-73
2021/09/17 01:26:21;;;;;;;11.38;7.75;;;;;;;11.88;87.55;98600.63;4169640;28;20041;-73
2021/09/17 01:28:23;;;;;;;10.30;7.53;;;;;;;11.88;86.79;98593.13;4169673;28;20400;-73
2021/09/17 01:30:24;;;;;;;8.77;6.87;;;;;;;11.86;87.21;98589.94;4170428;28;20131;-73
2021/09/17 01:32:24;;;;;;;11.35;7.90;;;;;;;11.90;87.26;98598.28;4169064;28;20477;-73
2021/09/17 01:34:24;;;;;;;12.75;7.13;;;;;;;11.93;87.01;98594.75;4169158;28;20048;-73
2021/09/17 01:36:25;;;;;;;11.40;7.85;;;;;;;11.93;86.96;98595.53;4170117;28;21520;-73
2021/09/17 01:38:26;;;;;;;8.40;6.55;;;;;;;11.92;87.17;98599.50;4170278;28;20522;-73
2021/09/17 01:40:26;;;;;;;9.85;7.22;;;;;;;11.90;87.68;98584.41;4169822;28;20079;-73
2021/09/17 01:42:27;;;;;;;10.65;8.00;;;;;;;11.89;88.05;98591.94;4169211;28;20473;-73
2021/09/17 01:44:27;;;;;;;10.40;8.45;;;;;;;11.87;88.38;98588.75;4168507;28;20453;-73
2021/09/17 01:46:27;;;;;;;13.13;7.68;;;;;;;11.91;88.33;98595.09;4169732;28;20045;-73
2021/09/17 01:48:28;;;;;;;10.75;7.45;;;;;;;11.87;88.25;98585.19;4170046;28;20040;-73
2021/09/17 01:50:29;;;;;;;11.98;8.13;;;;;;;11.92;88.37;98588.41;4170036;28;20055;-73
2021/09/17 01:52:29;;;;;;;10.88;8.20;;;;;;;11.87;88.32;98594.28;4169488;28;20136;-73
2021/09/17 01:54:29;;;;;;;11.38;7.93;;;;;;;11.88;88.38;98584.78;4168882;28;20045;-73
2021/09/17 01:56:31;;;;;;;9.80;7.63;;;;;;;11.86;88.39;98580.81;4168523;28;20041;-73
2021/09/17 01:58:31;;;;;;;14.57;9.23;;;;;;;11.79;88.80;98582.31;4170393;28;20041;-73
2021/09/17 02:00:31;;;;;;;14.38;7.97;;;;;;;11.74;89.13;98585.44;4169300;28;20625;-73
2021/09/17 02:02:32;;;;;;;12.68;8.40;;;;;;;11.71;89.07;98585.41;4169473;28;20294;-73
2021/09/17 02:04:32;;;;;;;14.20;8.45;;;;;;;11.63;89.25;98581.78;4168281;28;20041;-73
2021/09/17 02:06:33;;;;;;;11.85;8.30;;;;;;;11.56;89.15;98576.19;4168001;28;20094;-73
2021/09/17 02:08:33;;;;;;;13.07;8.43;;;;;;;11.57;89.22;98580.53;4169242;28;20523;-73
2021/09/17 02:10:33;;;;;;;15.27;8.27;;;;;;;11.53;88.97;98576.94;4167519;28;20195;-73
2021/09/17 02:12:34;;;;;;;12.98;7.85;;;;;;;11.47;88.93;98578.47;4170138;28;20140;-73
2021/09/17 02:14:34;;;;;;;13.95;8.82;;;;;;;11.47;88.97;98581.25;4168279;28;20415;-73
2021/09/17 02:16:35;;;;;;;10.85;8.05;;;;;;;11.49;89.06;98574.13;4168385;28;20126;-73
2021/09/17 02:18:35;;;;;;;12.20;7.57;;;;;;;11.47;88.93;98582.03;4170218;28;20048;-73
2021/09/17 02:20:36;;;;;;;9.63;7.50;;;;;;;11.46;88.88;98579.66;4169473;28;20098;-73
2021/09/17 02:22:36;;;;;;;14.07;7.80;;;;;;;11.43;88.78;98578.44;4169735;28;20421;-73
2021/09/17 02:24:36;;;;;;;10.82;7.50;;;;;;;11.40;88.59;98576.41;4167262;28;20040;-73
2021/09/17 02:26:37;;;;;;;10.80;7.75;;;;;;;11.38;88.58;98586.28;4168775;28;20464;-73
2021/09/17 02:28:37;;;;;;;9.85;8.27;;;;;;;11.34;88.97;98577.16;4169315;28;20044;-73
2021/09/17 02:30:38;;;;;;;11.25;7.20;;;;;;;11.29;88.88;98577.50;4168759;28;20040;-73
2021/09/17 02:32:38;;;;;;;12.57;8.27;;;;;;;11.25;88.96;98569.13;4170065;28;20052;-73
2021/09/17 02:34:39;;;;;;;11.27;7.97;;;;;;;11.23;88.64;98579.81;4168585;28;20052;-73
2021/09/17 02:36:39;;;;;;;10.90;7.88;;;;;;;11.14;88.88;98573.78;4169325;28;20032;-73
2021/09/17 02:38:40;;;;;;;14.00;8.82;;;;;;;11.12;89.13;98579.69;4169608;28;20216;-73
2021/09/17 02:40:40;;;;;;;11.82;8.07;;;;;;;11.10;89.48;98581.28;4167882;28;20037;-73
2021/09/17 02:42:40;;;;;;;13.40;9.43;;;;;;;11.03;89.85;98581.97;4169650;28;20045;-73
2021/09/17 02:44:41;;;;;;;12.35;8.57;;;;;;;10.97;90.34;98589.03;4167813;28;20173;-73
2021/09/17 02:46:41;;;;;;;11.73;7.53;;;;;;;10.96;90.21;98584.66;4168919;28;20135;-73
2021/09/17 02:48:44;;;;;;;12.90;8.50;;;;;;;10.94;90.36;98584.25;4168681;28;20052;-73
2021/09/17 02:50:44;;;;;;;12.05;8.40;;;;;;;10.94;90.37;98587.03;4168251;28;20351;-73
2021/09/17 02:52:45;;;;;;;13.38;8.50;;;;;;;10.95;90.60;98585.84;4168047;28;20037;-73
2021/09/17 02:54:45;;;;;;;12.38;8.95;;;;;;;11.07;90.65;98582.00;4167911;28;20048;-73
2021/09/17 02:56:45;;;;;;;13.77;8.88;;;;;;;11.13;91.01;98581.28;4168847;28;20041;-73
2021/09/17 02:58:46;;;;;;;14.80;8.90;;;;;;;11.19;90.76;98579.78;4168652;28;20198;-73
2021/09/17 03:00:46;;;;;;;16.55;8.88;;;;;;;11.32;90.41;98585.84;4168250;28;20040;-73
2021/09/17 03:02:47;;;;;;;12.23;8.13;;;;;;;11.34;90.66;98586.28;4168961;28;20449;-73
2021/09/17 03:04:47;;;;;;;14.77;9.20;;;;;;;11.47;90.37;98586.78;4168610;28;20110;-73
2021/09/17 03:06:47;;;;;;;15.25;9.20;;;;;;;11.59;89.88;98582.94;4168739;28;20037;-73
2021/09/17 03:08:48;;;;;;;14.07;9.43;;;;;;;11.64;89.46;98582.56;4168299;28;20041;-73
2021/09/17 03:10:48;;;;;;;13.15;8.25;;;;;;;11.61;89.20;98578.59;4168635;28;20432;-73
2021/09/17 03:12:49;;;;;;;11.88;8.30;;;;;;;11.63;88.98;98579.00;4168838;28;21130;-73
2021/09/17 03:14:49;;;;;;;13.77;8.88;;;;;;;11.61;89.14;98578.59;4171209;28;20064;-73
2021/09/17 03:16:50;;;;;;;11.93;8.20;;;;;;;11.51;88.98;98571.78;4172389;28;20058;-73
2021/09/17 03:18:50;;;;;;;15.10;8.30;;;;;;;11.46;88.99;98571.34;4170474;28;20516;-73
2021/09/17 03:20:51;;;;;;;16.00;8.93;;;;;;;11.43;89.28;98574.88;4172437;28;20239;-73
2021/09/17 03:22:51;;;;;;;15.98;8.85;;;;;;;11.33;89.46;98565.25;4171360;28;20051;-73
2021/09/17 03:24:52;;;;;;;12.43;8.30;;;;;;;11.25;89.90;98561.66;4169190;28;20665;-73
2021/09/17 03:26:53;;;;;;;12.77;8.68;;;;;;;11.23;89.86;98561.22;4168930;28;20041;-73
2021/09/17 03:28:53;;;;;;;11.82;8.73;;;;;;;11.23;89.76;98560.44;4171548;28;20033;-73
2021/09/17 03:30:54;;;;;;;13.05;8.25;;;;;;;11.20;89.76;98563.97;4169095;28;20499;-73
2021/09/17 03:32:54;;;;;;;12.40;8.68;;;;;;;11.17;89.97;98565.53;4171796;28;20067;-73
2021/09/17 03:34:54;;;;;;;12.50;8.15;;;;;;;11.13;89.80;98561.13;4170539;28;20392;-73
2021/09/17 03:36:55;;;;;;;13.45;7.68;;;;;;;11.14;89.47;98569.03;4170022;28;20056;-73
2021/09/17 03:38:55;;;;;;;11.13;7.28;;;;;;;11.11;89.40;98566.25;4170839;28;20048;-73
2021/09/17 03:40:56;;;;;;;11.15;7.95;;;;;;;11.07;89.74;98566.19;4171089;28;20450;-73
2021/09/17 03:42:56;;;;;;;10.82;7.70;;;;;;;11.05;89.79;98562.22;4171581;28;20049;-73
2021/09/17 03:44:56;;;;;;;13.05;7.97;;;;;;;10.99;89.61;98556.22;4171859;28;20540;-73
2021/09/17 03:46:57;;;;;;;10.07;7.22;;;;;;;10.99;89.91;98558.97;4171829;28;20334;-73
2021/09/17 03:48:57;;;;;;;10.27;7.18;;;;;;;10.97;89.90;98564.91;4169879;28;20052;-73
2021/09/17 03:50:57;;;;;;;12.18;7.72;;;;;;;10.96;89.64;98557.78;4171256;28;20093;-73
2021/09/17 03:52:58;;;;;;;11.88;7.88;;;;;;;10.89;89.54;98551.34;4171877;28;20091;-73
2021/09/17 03:54:58;;;;;;;10.32;7.70;;;;;;;10.87;89.44;98560.03;4171146;28;20052;-73
2021/09/17 03:56:59;;;;;;;9.35;7.25;;;;;;;10.84;89.83;98555.28;4170274;28;20393;-73
2021/09/17 03:58:59;;;;;;;10.65;7.63;;;;;;;10.84;89.73;98555.28;4172108;28;20682;-73
2021/09/17 04:01:00;;;;;;;11.60;7.82;;;;;;;10.82;89.45;98556.81;4169565;28;20045;-73
2021/09/17 04:03:00;;;;;;;13.93;9.43;;;;;;;10.74;89.91;98553.16;4168414;28;20294;-73
2021/09/17 04:05:00;;;;;;;11.50;7.80;;;;;;;10.71;90.30;98555.91;4167940;28;20528;-73
2021/09/17 04:07:01;;;;;;;12.00;7.80;;;;;;;10.67;90.36;98556.66;4168292;28;20108;-73
2021/09/17 04:09:01;;;;;;;12.27;9.15;;;;;;;10.58;90.66;98556.13;4168547;28;20377;-73
2021/09/17 04:11:02;;;;;;;14.32;7.93;;;;;;;10.55;90.52;98556.88;4169813;28;20312;-73
2021/09/17 04:13:02;;;;;;;13.13;8.60;;;;;;;10.48;90.79;98556.00;4170331;28;20049;-73
2021/09/17 04:15:03;;;;;;;11.35;8.63;;;;;;;10.42;90.57;98547.22;4167317;28;20465;-73
2021/09/17 04:17:04;;;;;;;12.18;8.25;;;;;;;10.43;90.98;98554.38;4169718;28;20042;-73
2021/09/17 04:19:04;;;;;;;12.80;8.15;;;;;;;10.40;90.58;98552.34;4169202;28;20043;-73
2021/09/17 04:21:04;;;;;;;13.50;8.88;;;;;;;10.37;90.51;98555.88;4167486;28;20457;-73
2021/09/17 04:23:05;;;;;;;11.18;8.13;;;;;;;10.35;91.06;98547.16;4167798;28;20037;-73
2021/09/17 04:25:06;;;;;;;12.13;8.52;;;;;;;10.34;90.43;98548.28;4166020;28;20065;-73
2021/09/17 04:27:07;;;;;;;9.73;7.65;;;;;;;10.38;90.65;98549.16;4166661;28;20042;-73
2021/09/17 04:29:07;;;;;;;11.68;8.13;;;;;;;10.41;90.77;98545.63;4169428;28;20428;-73
2021/09/17 04:31:07;;;;;;;14.85;8.15;;;;;;;10.41;90.37;98542.88;4170220;28;20049;-73
2021/09/17 04:33:14;;;;;;;10.82;7.32;;;;;;;10.41;90.54;98540.09;4168544;28;20401;-73
2021/09/17 04:35:14;;;;;;;10.93;7.13;;;;;;;10.43;90.63;98540.53;4169005;28;20044;-73
2021/09/17 04:37:16;;;;;;;11.93;8.07;;;;;;;10.43;90.49;98543.31;4168143;28;20036;-72
2021/09/17 04:39:16;;;;;;;11.85;7.93;;;;;;;10.46;90.20;98547.28;4166785;28;20072;-72
2021/09/17 04:41:17;;;;;;;11.00;7.60;;;;;;;10.48;90.50;98545.72;4169246;28;20044;-72
2021/09/17 04:43:18;;;;;;;13.93;7.95;;;;;;;10.50;90.05;98548.13;4167783;28;20047;-72
2021/09/17 04:45:18;;;;;;;13.45;8.10;;;;;;;10.48;90.07;98554.03;4169880;28;20048;-72
2021/09/17 04:47:19;;;;;;;10.13;7.85;;;;;;;10.48;90.11;98556.00;4167555;28;20438;-72
2021/09/17 04:49:19;;;;;;;11.38;7.43;;;;;;;10.52;90.63;98557.66;4170344;28;20060;-72
2021/09/17 04:51:19;;;;;;;12.40;7.97;;;;;;;10.52;90.55;98554.09;4169941;28;20053;-72
2021/09/17 04:53:20;;;;;;;11.10;7.53;;;;;;;10.54;91.11;98560.84;4167676;28;20382;-72
2021/09/17 04:55:20;;;;;;;15.15;9.43;;;;;;;10.58;91.03;98549.78;4171069;28;20061;-72
2021/09/17 04:57:21;;;;;;;10.18;8.35;;;;;;;10.60;90.92;98558.53;4169438;28;20049;-72
2021/09/17 04:59:21;;;;;;;11.88;8.30;;;;;;;10.66;90.73;98557.81;4169775;28;20148;-72
2021/09/17 05:01:21;;;;;;;13.68;8.25;;;;;;;10.71;90.67;98547.59;4170278;28;20037;-72
2021/09/17 05:03:22;;;;;;;11.02;7.38;;;;;;;10.74;90.83;98557.91;4169871;28;20106;-72
2021/09/17 05:05:23;;;;;;;14.25;8.57;;;;;;;10.79;90.76;98552.03;4169452;28;20056;-72
2021/09/17 05:07:23;;;;;;;14.02;8.75;;;;;;;10.80;90.76;98554.44;4169131;28;20049;-72
2021/09/17 05:09:24;;;;;;;13.68;7.88;;;;;;;10.83;90.61;98555.63;4167428;28;20067;-72
2021/09/17 05:11:24;;;;;;;14.32;9.13;;;;;;;10.82;91.25;98542.97;4169263;28;20056;-72
2021/09/17 05:13:25;;;;;;;10.32;8.45;;;;;;;10.90;91.08;98552.94;4169036;28;20049;-72
2021/09/17 05:15:25;;;;;;;8.98;7.05;;;;;;;10.94;91.04;98551.81;4170966;28;20496;-72
2021/09/17 05:17:25;;;;;;;11.07;8.45;;;;;;;10.98;91.05;98552.66;4169250;28;20049;-72
2021/09/17 05:19:26;;;;;;;10.88;8.07;;;;;;;11.03;91.04;98554.28;4168701;28;20350;-72
2021/09/17 05:21:27;;;;;;;10.20;7.88;;;;;;;11.13;91.29;98553.59;4170650;28;20857;-72
2021/09/17 05:23:27;;;;;;;12.70;8.38;;;;;;;11.15;91.06;98555.97;4169850;28;20193;-72
2021/09/17 05:25:28;;;;;;;13.52;8.63;;;;;;;11.21;90.87;98543.41;4168886;28;20552;-72
2021/09/17 05:27:28;;;;;;;11.38;8.80;;;;;;;11.26;90.63;98554.16;4169676;28;20059;-72
2021/09/17 05:29:28;;;;;;;13.60;8.60;;;;;;;11.32;90.53;98560.91;4170375;28;20071;-72
2021/09/17 05:31:29;;;;;;;10.73;7.68;;;;;;;11.34;90.57;98552.25;4168424;28;20389;-72
2021/09/17 05:33:29;;;;;;;10.85;8.00;;;;;;;11.37;90.65;98557.00;4168907;28;20392;-72
2021/09/17 05:35:30;;;;;;;12.43;7.88;;;;;;;11.39;90.50;98557.41;4169321;28;20648;-72
2021/09/17 05:37:30;;;;;;;11.45;7.88;;;;;;;11.44;90.05;98557.06;4165347;28;20037;-72
2021/09/17 05:39:31;;;;;;;10.73;7.60;;;;;;;11.50;89.99;98572.97;4159991;28;20053;-72
2021/09/17 05:41:33;;;;;;;13.63;7.85;;;;;;;11.50;90.04;98572.97;4161158;28;20090;-72
2021/09/17 05:43:33;;;;;;;13.07;9.05;;;;;;;11.56;89.45;98575.38;4168717;28;20083;-72
2021/09/17 05:45:33;;;;;;;13.60;7.95;;;;;;;11.58;89.93;98564.69;4168797;28;20056;-72
2021/09/17 05:47:34;;;;;;;12.88;8.93;;;;;;;11.62;89.50;98565.53;4169789;28;20044;-72
2021/09/17 05:49:34;;;;;;;13.20;9.07;;;;;;;11.64;89.47;98571.50;4169629;28;20134;-72
2021/09/17 05:51:34;;;;;;;12.30;8.20;;;;;;;11.65;89.45;98576.66;4169932;28;20488;-72
2021/09/17 05:53:35;;;;;;;11.32;8.45;;;;;;;11.66;89.37;98578.22;4168705;28;20091;-72
2021/09/17 05:55:36;;;;;;;13.60;9.20;;;;;;;11.68;89.57;98580.66;4169378;28;20041;-72
2021/09/17 05:57:36;;;;;;;12.15;9.27;;;;;;;11.70;89.57;98575.50;4169631;28;20083;-72
2021/09/17 05:59:36;;;;;;;13.25;9.18;;;;;;;11.71;89.79;98586.22;4167667;28;20041;-72
2021/09/17 06:01:37;;;;;;;15.77;10.20;;;;;;;11.71;89.65;98583.44;4169679;28;20102;-72
2021/09/17 06:03:39;;;;;;;15.13;8.13;;;;;;;11.72;89.34;98578.69;4168010;28;20037;-72
2021/09/17 06:05:39;;;;;;;13.07;8.95;;;;;;;11.73;89.83;98583.84;4168758;28;20227;-72
2021/09/17 06:07:44;;;;;;;12.80;9.80;;;;;;;11.71;89.73;98580.66;4168391;28;20095;-72
2021/09/17 06:09:44;;;;;;;11.30;8.23;;;;;;;11.78;89.67;98585.47;4165585;28;20076;-72
2021/09/17 06:11:45;;;;;;;11.88;8.60;;;;;;;11.80;89.43;98574.81;4169580;28;20049;-72
2021/09/17 06:13:47;;;;;;;13.68;9.40;;;;;;;11.82;89.32;98580.78;4166662;28;20326;-72
2021/09/17 06:15:48;;;;;;;12.57;8.88;;;;;;;11.89;89.31;98577.28;4169130;28;20106;-72
2021/09/17 06:17:50;;;;;;;11.57;8.73;;;;;;;11.85;89.24;98580.03;4167050;28;20056;-72
2021/09/17 06:19:52;;;;;;;12.20;9.07;;;;;;;11.88;88.96;98576.47;4166335;28;20087;-72
2021/09/17 06:21:52;;;;;;;12.52;8.57;;;;;;;11.90;88.57;98570.53;4168631;28;20052;-72
2021/09/17 06:23:52;;;;;;;17.35;9.45;;;;;;;11.93;88.74;98580.88;4167831;28;20061;-72
2021/09/17 06:25:56;;;;;;;10.82;8.65;;;;;;;12.00;88.67;98580.94;4169296;28;20052;-72
2021/09/17 06:27:58;;;;;;;13.32;9.40;;;;;;;12.04;88.40;98576.19;4168312;28;20049;-72
2021/09/17 06:29:58;;;;;;;13.73;8.82;;;;;;;12.07;88.30;98584.53;4169901;28;20462;-72
2021/09/17 06:31:59;;;;;;;11.63;9.25;;;;;;;12.17;87.93;98583.03;4167117;28;20477;-72
2021/09/17 06:33:59;;;;;;;14.43;9.13;;;;;;;12.07;88.29;98578.19;4168447;28;20053;-72
2021/09/17 06:36:00;;;;;;;16.98;10.63;;;;;;;12.09;88.42;98578.63;4165187;28;20056;-72
2021/09/17 06:38:01;;;;;;;16.63;10.00;;;;;;;12.06;88.69;98579.38;4168132;28;20053;-72
2021/09/17 06:40:01;;;;;;;14.07;9.95;;;;;;;12.06;88.44;98580.16;4169575;28;20077;-72
2021/09/17 06:42:02;;;;;;;12.45;9.57;;;;;;;12.04;88.83;98585.31;4168391;28;20278;-72
2021/09/17 06:44:02;;;;;;;12.25;9.45;;;;;;;12.08;88.65;98588.09;4168211;28;20032;-72
2021/09/17 06:46:02;;;;;;;24.17;10.43;;;;;;;12.13;88.68;98582.22;4169054;28;20384;-72
2021/09/17 06:48:04;;;;;;;13.77;9.65;;;;;;;12.18;88.72;98583.84;4168442;28;20029;-72
2021/09/17 06:50:05;;;;;;;17.63;9.83;;;;;;;12.15;88.62;98579.03;4168966;28;20025;-72
2021/09/17 06:52:05;;;;;;;12.07;9.85;;;;;;;12.18;88.69;98572.75;4169266;28;20260;-72
2021/09/17 06:54:06;;;;;;;14.68;9.73;;;;;;;12.22;88.72;98571.56;4168583;28;20041;-72
2021/09/17 06:56:06;;;;;;;14.93;9.75;;;;;;;12.25;88.71;98572.78;4168789;28;20033;-72
2021/09/17 06:58:07;;;;;;;18.35;9.48;;;;;;;12.27;88.53;98568.44;4169187;28;20307;-72
2021/09/17 07:00:08;;;;;;;16.98;10.27;;;;;;;12.33;88.49;98572.44;4168336;28;20095;-72
2021/09/17 07:02:10;;;;;;;13.40;8.68;;;;;;;12.40;88.65;98570.88;4168817;28;20509;-72
2021/09/17 07:04:10;;;;;;;15.88;9.82;;;;;;;12.44;88.21;98568.94;4168325;28;20156;-72
2021/09/17 07:06:11;;;;;;;14.00;10.10;;;;;;;12.48;88.33;98572.50;4168191;28;20096;-72
2021/09/17 07:08:11;;;;;;;13.52;9.73;;;;;;;12.54;88.01;98571.75;4169381;28;20041;-72
2021/09/17 07:10:12;;;;;;;14.77;10.45;;;;;;;12.60;87.71;98563.84;4168674;28;20033;-72
2021/09/17 07:12:12;;;;;;;15.38;9.50;;;;;;;12.69;87.48;98564.28;4169370;28;20064;-72
2021/09/17 07:14:12;;;;;;;15.20;10.38;;;;;;;12.77;87.37;98577.03;4167584;28;20094;-72
2021/09/17 07:16:13;;;;;;;14.13;10.05;;;;;;;12.80;86.72;98575.44;4168612;28;20041;-72
2021/09/17 07:18:14;;;;;;;13.23;9.85;;;;;;;12.82;87.18;98587.72;4167862;28;20342;-73
2021/09/17 07:20:14;;;;;;;16.50;9.73;;;;;;;12.89;86.48;98579.44;4165872;28;20028;-73
2021/09/17 07:22:15;;;;;;;13.88;9.60;;;;;;;12.88;86.97;98583.41;4169097;28;20468;-73
2021/09/17 07:24:15;;;;;;;16.08;9.55;;;;;;;12.88;86.60;98582.59;4168204;28;20091;-73
2021/09/17 07:26:16;;;;;;;15.00;10.60;;;;;;;12.91;86.60;98585.41;4168208;28;20481;-73
2021/09/17 07:28:16;;;;;;;14.75;9.52;;;;;;;12.90;86.38;98580.22;4150792;28;20029;-73
2021/09/17 07:30:17;;;;;;;15.07;9.88;;;;;;;12.97;85.90;98585.03;4167850;28;20519;-73
2021/09/17 07:32:17;;;;;;;12.82;9.25;;;;;;;12.93;86.23;98583.03;4168212;28;20036;-73
2021/09/17 07:34:17;;;;;;;11.93;9.05;;;;;;;12.91;86.40;98588.19;4166274;28;20469;-73
2021/09/17 07:36:18;;;;;;;15.23;10.10;;;;;;;12.90;86.35;98581.03;4168772;28;20037;-73
2021/09/17 07:38:18;;;;;;;14.15;10.40;;;;;;;12.88;86.69;98579.84;4168184;28;20052;-74
2021/09/17 07:40:19;;;;;;;18.60;10.18;;;;;;;12.87;86.84;98576.25;4169026;28;20033;-73
2021/09/17 07:42:19;;;;;;;14.15;9.90;;;;;;;12.87;86.97;98584.59;4169190;28;20171;-73
2021/09/17 07:44:20;;;;;;;16.95;10.68;;;;;;;12.84;86.73;98582.59;4166800;28;20279;-73
2021/09/17 07:46:20;;;;;;;13.00;9.82;;;;;;;12.88;86.75;98582.59;4167809;28;20048;-74
2021/09/17 07:48:21;;;;;;;15.45;10.30;;;;;;;12.82;87.21;98578.59;4167962;28;20053;-73
2021/09/17 07:50:21;;;;;;;17.00;11.25;;;;;;;12.85;87.29;98583.41;4169202;28;20472;-73
2021/09/17 07:52:21;;;;;;;16.13;10.23;;;;;;;12.94;87.12;98592.97;4168252;28;20076;-73
2021/09/17 07:54:23;;;;;;;16.25;10.35;;;;;;;12.94;86.71;98584.63;4166381;28;20358;-73
2021/09/17 07:56:24;;;;;;;14.63;9.20;;;;;;;12.99;86.31;98582.63;4168885;28;20205;-73
2021/09/17 07:58:24;;;;;;;15.10;10.68;;;;;;;13.03;86.77;98583.47;4168881;28;20033;-73
2021/09/17 08:00:25;;;;;;;14.93;10.85;;;;;;;13.10;86.73;98586.25;4168457;28;20095;-73
2021/09/17 08:02:25;;;;;;;11.93;9.57;;;;;;;13.17;86.82;98589.06;4171969;28;20049;-73
2021/09/17 08:04:25;;;;;;;13.55;10.18;;;;;;;13.25;86.79;98584.34;4170334;28;20041;-73
2021/09/17 08:06:26;;;;;;;16.98;11.65;;;;;;;13.32;86.13;98584.34;4172304;28;20408;-73
2021/09/17 08:08:27;;;;;;;17.35;11.10;;;;;;;13.37;87.09;98579.22;4171899;28;20049;-73
2021/09/17 08:10:27;;;;;;;16.08;10.90;;;;;;;13.48;86.27;98585.56;4171261;28;20231;-73
2021/09/17 08:12:27;;;;;;;14.95;11.32;;;;;;;13.56;85.18;98575.25;4169811;28;20048;-73
2021/09/17 08:14:28;;;;;;;18.05;12.10;;;;;;;13.55;84.93;98589.56;4170225;28;20033;-73
2021/09/17 08:16:28;;;;;;;15.05;10.65;;;;;;;13.61;84.30;98579.66;4171330;28;20469;-73
2021/09/17 08:18:29;;;;;;;15.40;11.05;;;;;;;13.66;84.59;98590.38;4171215;28;20049;-73
2021/09/17 08:20:29;;;;;;;23.55;15.93;;;;;;;13.75;84.13;98590.78;4171285;28;20779;-73
2021/09/17 08:22:30;;;;;;;19.13;11.77;;;;;;;13.71;84.18;98596.31;4171040;28;20090;-73
2021/09/17 08:24:30;;;;;;;16.30;11.50;;;;;;;13.75;84.34;98594.38;4170638;28;20062;-73
2021/09/17 08:26:30;;;;;;;15.85;11.52;;;;;;;13.82;84.43;98595.53;4170593;28;20056;-73
2021/09/17 08:28:31;;;;;;;14.68;10.77;;;;;;;13.87;83.47;98590.38;4169966;28;20037;-73
2021/09/17 08:30:32;;;;;;;16.10;10.25;;;;;;;13.90;83.70;98589.59;4171370;28;20127;-73
2021/09/17 08:32:33;;;;;;;15.05;10.75;;;;;;;13.97;83.89;98588.78;4170852;28;20045;-73
2021/09/17 08:34:33;;;;;;;20.02;12.85;;;;;;;14.04;83.40;98595.16;4169639;28;20040;-73
2021/09/17 08:36:34;;;;;;;18.33;12.38;;;;;;;14.14;82.55;98589.97;4169084;28;20750;-73
2021/09/17 08:38:35;;;;;;;19.02;12.43;;;;;;;14.19;82.26;98584.00;4171058;28;20041;-73
2021/09/17 08:40:36;;;;;;;23.25;16.35;;;;;;;14.28;81.63;98585.19;4170763;28;20049;-73
2021/09/17 08:42:36;;;;;;;17.67;11.40;;;;;;;14.28;80.96;98585.19;4170736;28;20037;-73
2021/09/17 08:44:37;;;;;;;15.48;11.38;;;;;;;14.42;80.88;98587.16;4170546;28;20064;-73
2021/09/17 08:46:41;;;;;;;19.08;12.40;;;;;;;14.53;81.16;98595.50;4168628;28;20091;-73
2021/09/17 08:48:42;;;;;;;15.40;11.02;;;;;;;14.59;80.00;98591.13;4170721;28;20806;-74
2021/09/17 08:50:43;;;;;;;15.07;11.40;;;;;;;14.60;78.97;98585.16;4169708;28;20047;-73
2021/09/17 08:52:45;;;;;;;15.00;10.18;;;;;;;14.54;78.95;98603.44;4171378;28;20412;-74
2021/09/17 08:54:48;;;;;;;22.50;15.30;;;;;;;14.65;79.28;98588.72;4169850;28;20564;-73
2021/09/17 08:56:49;;;;;;;17.35;12.50;;;;;;;14.73;79.38;98598.63;4170557;28;20539;-73
2021/09/17 08:58:50;;;;;;;17.17;12.35;;;;;;;14.85;79.86;98596.19;4169314;28;20135;-73
2021/09/17 09:00:52;;;;;;;17.20;10.57;;;;;;;14.98;79.03;98598.56;4169260;28;20091;-74
2021/09/17 09:02:56;;;;;;;16.98;12.57;;;;;;;14.89;76.73;98596.16;4170366;28;20059;-74
2021/09/17 09:05:02;;;;;;;13.75;9.20;;;;;;;14.96;76.92;98593.38;4169883;28;20037;-73
2021/09/17 09:07:04;;;;;;;12.50;8.48;;;;;;;14.94;75.57;98592.97;4167336;28;20480;-73
2021/09/17 09:09:15;;;;;;;14.40;8.65;;;;;;;14.94;74.82;98589.41;4170029;28;20378;-73
2021/09/17 09:11:22;;;;;;;12.10;9.00;;;;;;;14.75;74.66;98585.91;4169142;28;20049;-73
2021/09/17 09:13:23;;;;;;;14.52;8.20;;;;;;;14.82;75.16;98585.88;4169181;28;20381;-73
2021/09/17 09:15:29;;;;;;;10.68;8.55;;;;;;;14.87;75.20;98585.44;4169569;28;20049;-73
2021/09/17 09:17:34;;;;;;;10.90;8.15;;;;;;;14.90;75.75;98586.66;4168807;28;20085;-73
2021/09/17 09:19:37;;;;;;;13.23;7.97;;;;;;;14.88;75.49;98589.81;4167824;28;20469;-73
2021/09/17 09:21:38;;;;;;;11.73;8.68;;;;;;;14.96;74.73;98579.44;4159279;28;20049;-73